Ucluelet, Canada
Current Conditions -  °F | °C
As of 12:00 PM on Saturday 25 Oct 2014 (Local Time) from CYAZ Reporting Station
Light Rain Light Rain  
Wind Chill: 12°   Ceiling: 700
Heat Index: 12°   Visibility: 3mi
Dew Point: 11°   Wind: 13mph
Humidity: 94%   Direction: 100°E
Pressure: 29.29"   Gusts: 20mph
Location:  48.94°N, 125.54°W
Report Text: CYAZ 251900Z 10011G17KT 3SM -RA BR FEW004 BKN007 BKN014 OVC018 12/11 A2929 RMK SF2SF3SC2SC1 VRY LGT RA SLP918 DENSITY ALT 400FT
Loading
Personal Weather Stations






























Interactive Weather Map
Tropical Storm Tracking
New forecast layout! Learn more

10-Day Weather Forecast

Advertisements
Track Severe Weather on mobile